Time;durP1;ratioP1;P1;durP2;ratioP2;P2;SDS_P1;SDS_P2;PMS_P1;PMS_P2;Temp;Humidity;BMP_temperature;BMP_pressure;BME280_temperature;BME280_humidity;BME280_pressure;Samples;Min_cycle;Max_cycle;Signal;HPM_P1;HPM_P2
2021/07/26 04:56:53;;;;;;;;;;;;;;;27.75;51.63;100721.00;1855590;77;20221;-63
2021/07/26 04:59:20;;;;;;;;;;;;;;;27.93;50.79;100722.53;1829180;78;20069;-63
2021/07/26 05:01:47;;;;;;;;;;;;;;;28.18;50.27;100719.91;1828818;78;21501;-67
2021/07/26 05:04:13;;;;;;;;;;;;;;;28.45;49.15;100723.30;1828838;78;20148;-64
2021/07/26 05:06:42;;;;;;;;;;;;;;;28.54;48.55;100729.41;1828936;78;20117;-65
2021/07/26 05:09:09;;;;;;;;;;;;;;;28.51;47.85;100722.56;1819913;78;20113;-64
2021/07/26 05:11:36;;;;;;;;;;;;;;;28.67;48.30;100720.72;1828349;78;20144;-66
2021/07/26 05:14:03;;;;;;;;;;;;;;;28.83;47.99;100723.20;1823876;78;20964;-66
2021/07/26 05:16:30;;;;;;;;;;;;;;;29.07;47.82;100716.17;1824037;78;20437;-68
2021/07/26 05:18:57;;;;;;;;;;;;;;;29.20;46.83;100722.16;1827873;78;20147;-65
2021/07/26 05:21:24;;;;;;;;;;;;;;;29.15;46.51;100717.39;1819672;78;20185;-62
2021/07/26 05:23:51;;;;;;;;;;;;;;;28.97;47.63;100721.00;1828285;78;20453;-65
2021/07/26 05:26:18;;;;;;;;;;;;;;;29.17;47.45;100713.19;1823311;78;20974;-69
2021/07/26 05:28:46;;;;;;;;;;;;;;;29.43;47.51;100717.48;1826694;78;20120;-69
2021/07/26 05:31:13;;;;;;;;;;;;;;;29.82;46.60;100715.65;1827213;78;20148;-66
2021/07/26 05:33:41;;;;;;;;;;;;;;;30.24;46.02;100713.06;1817529;78;20558;-66
2021/07/26 05:36:08;;;;;;;;;;;;;;;30.67;45.44;100708.35;1807852;78;20101;-65
2021/07/26 05:38:34;;;;;;;;;;;;;;;31.06;43.81;100713.03;1819215;78;20550;-67
2021/07/26 05:41:05;;;;;;;;;;;;;;;31.38;43.33;100714.97;1815214;78;20175;-67
2021/07/26 05:43:31;;;;;;;;;;;;;;;31.69;42.25;100711.70;1789398;78;20139;-68
2021/07/26 05:45:58;;;;;;;;;;;;;;;32.01;41.40;100715.91;1821299;78;20134;-69
2021/07/26 05:48:25;;;;;;;;;;;;;;;32.27;40.77;100722.64;1823835;78;20172;-68
2021/07/26 05:50:52;;;;;;;;;;;;;;;32.49;40.74;100713.23;1828155;78;21525;-69
2021/07/26 05:53:21;;;;;;;;;;;;;;;32.71;40.10;100721.87;1826235;78;20404;-70
2021/07/26 05:55:48;;;;;;;;;;;;;;;32.84;39.97;100713.41;1813292;78;20126;-68
2021/07/26 05:58:15;;;;;;;;;;;;;;;32.96;39.59;100714.39;1813466;79;20141;-68
2021/07/26 06:00:44;;;;;;;;;;;;;;;33.02;39.51;100717.06;1807735;79;20174;-67
2021/07/26 06:03:10;;;;;;;;;;;;;;;33.13;39.14;100708.80;1809567;79;20877;-68
2021/07/26 06:05:39;;;;;;;;;;;;;;;33.24;39.22;100712.66;1813920;79;20482;-70
2021/07/26 06:08:05;;;;;;;;;;;;;;;33.38;39.13;100706.16;1813858;79;20175;-73
2021/07/26 06:10:33;;;;;;;;;;;;;;;33.51;38.76;100715.52;1799391;79;20155;-69
2021/07/26 06:13:01;;;;;;;;;;;;;;;33.65;38.47;100707.59;1814994;79;20094;-73
2021/07/26 06:15:30;;;;;;;;;;;;;;;33.83;38.22;100710.08;1786791;79;20152;-68
2021/07/26 06:17:57;;;;;;;;;;;;;;;33.96;37.07;100708.09;1815584;79;20113;-70
2021/07/26 06:20:24;;;;;;;;;;;;;;;34.00;36.45;100710.61;1814704;79;20215;-68
2021/07/26 06:22:54;;;;;;;;;;;;;;;33.99;36.80;100713.02;1802554;79;20375;-66
2021/07/26 06:25:22;;;;;;;;;;;;;;;34.07;36.25;100712.73;1816081;79;20094;-69
2021/07/26 06:27:51;;;;;;;;;;;;;;;34.12;35.82;100713.41;1798900;79;21152;-69
2021/07/26 06:30:18;;;;;;;;;;;;;;;34.19;35.77;100712.83;1815573;78;20113;-70
2021/07/26 06:32:45;;;;;;;;;;;;;;;34.33;35.47;100718.43;1795199;79;20070;-70
2021/07/26 06:35:12;;;;;;;;;;;;;;;34.43;35.21;100717.35;1809094;78;20373;-71
2021/07/26 06:37:39;;;;;;;;;;;;;;;34.56;34.99;100713.67;1800743;79;20113;-70
2021/07/26 06:40:08;;;;;;;;;;;;;;;34.64;34.69;100712.02;1811498;79;22210;-68
2021/07/26 06:42:35;;;;;;;;;;;;;;;34.61;34.61;100711.11;1799608;78;20404;-68
2021/07/26 06:45:02;;;;;;;;;;;;;;;34.65;34.86;100716.89;1796252;78;20095;-67
2021/07/26 06:47:29;;;;;;;;;;;;;;;34.69;34.60;100715.39;1793799;79;20109;-69
2021/07/26 06:49:58;;;;;;;;;;;;;;;34.71;33.96;100718.70;1802079;79;20103;-66
2021/07/26 06:52:25;;;;;;;;;;;;;;;34.64;34.55;100717.95;1805962;79;21106;-67
2021/07/26 06:54:53;;;;;;;;;;;;;;;34.65;34.49;100715.55;1807707;79;20146;-68
2021/07/26 06:57:20;;;;;;;;;;;;;;;34.77;34.47;100725.91;1807314;78;20110;-66
2021/07/26 06:59:47;;;;;;;;;;;;;;;34.85;33.76;100718.83;1816568;78;20089;-69
2021/07/26 07:02:15;;;;;;;;;;;;;;;34.87;34.05;100717.25;1805856;78;20078;-69
2021/07/26 07:04:41;;;;;;;;;;;;;;;34.99;34.10;100714.07;1816428;78;22132;-68
2021/07/26 07:07:08;;;;;;;;;;;;;;;35.13;34.04;100714.72;1822899;78;20478;-68
2021/07/26 07:09:36;;;;;;;;;;;;;;;35.24;33.12;100709.84;1789518;79;20156;-67
2021/07/26 07:12:04;;;;;;;;;;;;;;;35.30;32.93;100720.61;1822639;78;20560;-71
2021/07/26 07:14:31;;;;;;;;;;;;;;;35.35;32.83;100721.27;1819028;78;20179;-70
2021/07/26 07:16:58;;;;;;;;;;;;;;;35.33;32.99;100726.09;1805583;78;21856;-71
2021/07/26 07:19:26;;;;;;;;;;;;;;;35.35;33.00;100723.45;1814901;78;20105;-69
2021/07/26 07:21:53;;;;;;;;;;;;;;;35.42;31.85;100724.17;1824624;78;20185;-66
2021/07/26 07:24:21;;;;;;;;;;;;;;;35.14;32.83;100720.42;1814556;78;20142;-71
2021/07/26 07:26:47;;;;;;;;;;;;;;;35.07;33.38;100717.81;1789338;78;20143;-69
2021/07/26 07:29:16;;;;;;;;;;;;;;;35.13;32.75;100716.89;1811813;78;21132;-71
2021/07/26 07:31:44;;;;;;;;;;;;;;;35.23;31.79;100725.26;1815181;78;20114;-69
2021/07/26 07:34:12;;;;;;;;;;;;;;;35.24;32.05;100722.85;1820164;78;20078;-73
2021/07/26 07:36:42;;;;;;;;;;;;;;;35.21;32.72;100725.19;1820756;78;20090;-70
2021/07/26 07:39:09;;;;;;;;;;;;;;;35.37;32.49;100729.98;1820989;78;20121;-71
2021/07/26 07:41:36;;;;;;;;;;;;;;;35.49;32.19;100728.66;1791483;78;21043;-67
2021/07/26 07:44:03;;;;;;;;;;;;;;;35.48;32.29;100726.48;1823911;78;20087;-66
2021/07/26 07:46:30;;;;;;;;;;;;;;;35.45;32.42;100725.59;1793727;78;20228;-67
2021/07/26 07:48:57;;;;;;;;;;;;;;;35.58;32.71;100727.27;1806724;78;20130;-67
2021/07/26 07:51:25;;;;;;;;;;;;;;;35.70;32.44;100726.20;1808253;78;20121;-67
2021/07/26 07:53:53;;;;;;;;;;;;;;;35.80;31.97;100727.02;1825341;78;21954;-69
2021/07/26 07:56:20;;;;;;;;;;;;;;;35.84;31.42;100729.55;1798078;78;20228;-70
2021/07/26 07:58:49;;;;;;;;;;;;;;;35.88;30.99;100729.38;1803096;78;20137;-68
2021/07/26 08:01:22;;;;;;;;;;;;;;;35.86;30.91;100726.08;1824715;78;20248;-64
2021/07/26 08:04:04;;;;;;;;;;;;;;;35.84;30.61;100724.66;1830423;78;20120;-66
2021/07/26 08:06:40;;;;;;;;;;;;;;;35.89;31.06;100729.67;1799660;78;20185;-68
2021/07/26 08:09:06;;;;;;;;;;;;;;;35.99;31.35;100725.81;1819837;78;20171;-68
2021/07/26 08:11:33;;;;;;;;;;;;;;;36.08;31.14;100724.94;1822963;78;20116;-71
2021/07/26 08:14:03;;;;;;;;;;;;;;;36.12;31.73;100728.00;1828754;78;20156;-70
2021/07/26 08:16:54;;;;;;;;;;;;;;;36.15;30.81;100727.53;1818072;78;20111;-68
2021/07/26 08:19:28;;;;;;;;;;;;;;;36.04;30.33;100727.30;1830431;78;20430;-69
2021/07/26 08:22:30;;;;;;;;;;;;;;;35.84;30.32;100724.13;1818117;78;20115;-70
2021/07/26 08:25:08;;;;;;;;;;;;;;;35.74;30.76;100730.62;1804100;78;20086;-69
2021/07/26 08:27:41;;;;;;;;;;;;;;;35.69;29.69;100727.79;1822307;78;20121;-68
2021/07/26 08:30:09;;;;;;;;;;;;;;;35.56;30.10;100727.50;1802262;78;20086;-66
2021/07/26 08:32:38;;;;;;;;;;;;;;;35.56;30.72;100722.62;1818014;78;21857;-67
2021/07/26 08:35:07;;;;;;;;;;;;;;;35.56;30.54;100728.86;1817146;78;20482;-67
2021/07/26 08:37:34;;;;;;;;;;;;;;;35.50;30.53;100724.90;1812604;78;20161;-66
2021/07/26 08:40:04;;;;;;;;;;;;;;;35.47;30.91;100725.36;1812402;78;20132;-66
2021/07/26 08:42:31;;;;;;;;;;;;;;;35.47;30.88;100719.41;1830082;78;20198;-68
2021/07/26 08:44:58;;;;;;;;;;;;;;;35.38;30.99;100735.17;1783344;78;21130;-69
2021/07/26 08:47:26;;;;;;;;;;;;;;;35.33;30.55;100726.09;1828606;78;20086;-67
2021/07/26 08:49:54;;;;;;;;;;;;;;;35.33;30.03;100726.91;1827575;78;20117;-67
2021/07/26 08:52:22;;;;;;;;;;;;;;;35.09;30.04;100725.17;1823277;78;20224;-67
2021/07/26 08:54:49;;;;;;;;;;;;;;;34.77;31.12;100728.61;1825782;78;20404;-67
2021/07/26 08:57:26;;;;;;;;;;;;;;;34.63;31.17;100728.47;1812245;78;20094;-69
2021/07/26 08:59:54;;;;;;;;;;;;;;;34.30;31.78;100721.58;1816194;78;20097;-66
2021/07/26 09:02:20;;;;;;;;;;;;;;;34.21;32.09;100722.06;1816608;78;20430;-70
2021/07/26 09:04:49;;;;;;;;;;;;;;;34.26;31.85;100721.70;1822951;78;20133;-70
2021/07/26 09:07:20;;;;;;;;;;;;;;;34.35;32.07;100720.38;1826648;78;20113;-70
2021/07/26 09:09:47;;;;;;;;;;;;;;;34.37;31.75;100718.28;1828370;78;21114;-69
2021/07/26 09:12:32;;;;;;;;;;;;;;;34.17;31.07;100712.75;1829482;78;20095;-69
2021/07/26 09:15:00;;;;;;;;;;;;;;;33.72;32.16;100713.77;1761213;81;20127;-68
2021/07/26 09:17:38;;;;;;;;;;;;;;;33.36;33.28;100714.48;1767507;81;20100;-71
2021/07/26 09:20:05;;;;;;;;;;;;;;;33.24;33.78;100714.84;1783938;80;20111;-68
2021/07/26 09:22:38;;;;;;;;;;;;;;;33.16;33.65;100712.95;1784640;80;21996;-66
2021/07/26 09:25:25;;;;;;;;;;;;;;;33.06;34.13;100718.81;1753325;81;20424;-68
2021/07/26 09:28:08;;;;;;;;;;;;;;;32.97;34.41;100712.83;1753562;80;20081;-67
2021/07/26 09:30:48;;;;;;;;;;;;;;;32.84;33.89;100714.24;1755691;80;20128;-68
2021/07/26 09:33:28;;;;;;;;;;;;;;;32.77;33.42;100705.38;1753289;81;20141;-66
2021/07/26 09:36:12;;;;;;;;;;;;;;;32.78;33.40;100701.13;1753255;81;22322;-68
2021/07/26 09:38:43;;;;;;;;;;;;;;;32.81;34.04;100698.48;1752097;82;20108;-68
2021/07/26 09:41:10;;;;;;;;;;;;;;;32.75;34.12;100699.38;1752988;82;20131;-66
2021/07/26 09:43:38;;;;;;;;;;;;;;;32.68;34.01;100703.41;1753327;81;20088;-67
2021/07/26 09:46:06;;;;;;;;;;;;;;;32.60;32.82;100696.91;1762265;81;20136;-68
2021/07/26 09:48:32;;;;;;;;;;;;;;;32.44;32.84;100696.86;1762269;80;21233;-67
2021/07/26 09:51:02;;;;;;;;;;;;;;;32.25;33.46;100694.24;1762265;81;20080;-65
2021/07/26 09:53:30;;;;;;;;;;;;;;;32.08;34.04;100701.91;1762266;81;20108;-66
2021/07/26 09:55:58;;;;;;;;;;;;;;;31.96;33.78;100699.57;1764206;81;20837;-67
2021/07/26 09:58:36;;;;;;;;;;;;;;;31.79;33.80;100694.61;1757130;81;20558;-67
2021/07/26 10:01:06;;;;;;;;;;;;;;;31.74;33.58;100690.36;1731728;83;21100;-65
2021/07/26 10:03:34;;;;;;;;;;;;;;;31.67;33.76;100683.28;1731711;83;20093;-66
2021/07/26 10:06:01;;;;;;;;;;;;;;;31.58;34.02;100684.04;1731753;83;20121;-65
2021/07/26 10:08:29;;;;;;;;;;;;;;;31.55;33.84;100684.97;1731916;83;20415;-65
2021/07/26 10:10:56;;;;;;;;;;;;;;;31.43;33.54;100680.72;1750924;81;20106;-66
2021/07/26 10:13:25;;;;;;;;;;;;;;;31.32;33.55;100686.70;1749897;81;21141;-65
2021/07/26 10:15:54;;;;;;;;;;;;;;;31.23;33.74;100682.55;1763072;81;20102;-64
2021/07/26 10:18:21;;;;;;;;;;;;;;;31.17;34.20;100677.49;1763494;81;20110;-66
2021/07/26 10:21:06;;;;;;;;;;;;;;;31.21;35.53;100687.30;1761384;81;20114;-67
2021/07/26 10:23:39;;;;;;;;;;;;;;;31.24;35.85;100678.82;1762983;81;20427;-66
2021/07/26 10:26:08;;;;;;;;;;;;;;;31.29;36.18;100680.38;1752149;81;21120;-63
2021/07/26 10:28:37;;;;;;;;;;;;;;;31.26;35.68;100683.48;1745892;81;20575;-65
2021/07/26 10:31:30;;;;;;;;;;;;;;;31.05;36.01;100681.78;1742586;81;20091;-65
2021/07/26 10:34:19;;;;;;;;;;;;;;;30.84;36.27;100680.05;1764810;81;20398;-65
2021/07/26 10:36:47;;;;;;;;;;;;;;;30.70;36.67;100680.55;1753988;81;20104;-66
2021/07/26 10:39:18;;;;;;;;;;;;;;;30.67;37.29;100686.84;1748100;81;21109;-65
2021/07/26 10:41:50;;;;;;;;;;;;;;;30.70;37.67;100686.45;1764232;81;20095;-65
2021/07/26 10:44:21;;;;;;;;;;;;;;;30.73;36.77;100692.25;1764577;81;20198;-66
2021/07/26 10:46:57;;;;;;;;;;;;;;;30.64;36.73;100684.55;1750616;81;20414;-66
2021/07/26 10:49:50;;;;;;;;;;;;;;;30.58;37.51;100698.80;1758524;81;20098;-66
2021/07/26 10:52:27;;;;;;;;;;;;;;;30.58;38.05;100696.11;1752576;81;21155;-66
2021/07/26 10:54:58;;;;;;;;;;;;;;;30.50;37.21;100709.99;1757110;81;20095;-66
2021/07/26 10:57:43;;;;;;;;;;;;;;;30.25;36.48;100706.67;1755185;81;20106;-65
2021/07/26 11:00:24;;;;;;;;;;;;;;;29.98;36.35;100699.77;1737705;81;20445;-67
2021/07/26 11:02:47;;;;;;;;;;;;;;;29.71;35.36;100704.09;1747168;81;20160;-66
2021/07/26 11:05:30;;;;;;;;;;;;;;;29.46;39.59;100707.72;1742563;81;21133;-69
2021/07/26 11:08:19;;;;;;;;;;;;;;;29.09;42.65;100722.17;1748713;82;20115;-67
2021/07/26 11:10:46;;;;;;;;;;;;;;;28.53;44.68;100721.05;1756497;81;20123;-67
2021/07/26 11:13:13;;;;;;;;;;;;;;;27.92;42.35;100724.38;1762188;81;20114;-68
2021/07/26 11:15:48;;;;;;;;;;;;;;;27.52;45.45;100732.22;1746357;81;20101;-68
2021/07/26 11:18:23;;;;;;;;;;;;;;;27.23;47.42;100727.05;1732107;81;21970;-67
2021/07/26 11:20:56;;;;;;;;;;;;;;;26.98;49.28;100733.56;1753113;81;20386;-71
2021/07/26 11:23:47;;;;;;;;;;;;;;;26.77;48.78;100714.12;1747431;82;20413;-69
2021/07/26 11:26:24;;;;;;;;;;;;;;;26.64;51.73;100714.34;1733299;82;20150;-68
2021/07/26 11:28:59;;;;;;;;;;;;;;;26.48;55.28;100708.05;1754018;81;20366;-66
2021/07/26 11:31:32;;;;;;;;;;;;;;;26.34;58.19;100718.13;1751030;81;21155;-68
2021/07/26 11:34:11;;;;;;;;;;;;;;;26.08;63.36;100714.30;1752150;81;20075;-69
2021/07/26 11:36:58;;;;;;;;;;;;;;;25.67;63.47;100706.85;1753715;81;20430;-68
2021/07/26 11:39:25;;;;;;;;;;;;;;;25.42;63.03;100695.33;1734080;81;20611;-68
2021/07/26 11:41:53;;;;;;;;;;;;;;;25.40;67.31;100685.33;1751975;81;20114;-65
2021/07/26 11:44:28;;;;;;;;;;;;;;;25.50;70.40;100685.17;1757928;81;21074;-67
2021/07/26 11:46:56;;;;;;;;;;;;;;;25.63;70.21;100677.98;1758116;81;20170;-71
2021/07/26 11:49:23;;;;;;;;;;;;;;;25.81;71.64;100676.84;1749210;81;20119;-66
2021/07/26 11:51:50;;;;;;;;;;;;;;;26.02;74.55;100679.45;1753185;81;20110;-65
2021/07/26 11:54:17;;;;;;;;;;;;;;;26.24;75.32;100674.23;1740064;81;20115;-65
2021/07/26 11:56:44;;;;;;;;;;;;;;;26.45;74.88;100667.49;1758199;81;20987;-66
2021/07/26 11:59:19;;;;;;;;;;;;;;;26.67;73.37;100669.41;1749252;81;20166;-65
2021/07/26 12:01:57;;;;;;;;;;;;;;;26.88;72.41;100662.09;1749908;82;20091;-68
2021/07/26 12:04:28;;;;;;;;;;;;;;;27.08;71.10;100662.00;1745565;81;20162;-69
2021/07/26 12:07:06;;;;;;;;;;;;;;;27.27;69.30;100660.67;1745688;81;20110;-67
2021/07/26 12:09:34;;;;;;;;;;;;;;;27.42;66.70;100666.09;1745478;82;21049;-66
2021/07/26 12:12:12;;;;;;;;;;;;;;;27.56;65.15;100663.97;1753560;81;20115;-66
2021/07/26 12:14:40;;;;;;;;;;;;;;;27.66;66.61;100659.70;1748012;81;20081;-66
2021/07/26 12:17:11;;;;;;;;;;;;;;;27.73;67.98;100658.80;1758615;81;20128;-69
2021/07/26 12:19:39;;;;;;;;;;;;;;;27.80;68.18;100666.43;1748302;81;20118;-68
2021/07/26 12:22:21;;;;;;;;;;;;;;;27.85;68.15;100660.02;1755895;81;21726;-67
2021/07/26 12:24:58;;;;;;;;;;;;;;;27.88;68.91;100655.64;1747360;81;20412;-68
2021/07/26 12:27:30;;;;;;;;;;;;;;;27.92;69.08;100653.94;1748365;81;20473;-67
2021/07/26 12:29:59;;;;;;;;;;;;;;;27.93;68.69;100656.44;1747353;81;20675;-68
2021/07/26 12:32:25;;;;;;;;;;;;;;;27.92;69.06;100652.09;1760385;81;20122;-67
2021/07/26 12:35:17;;;;;;;;;;;;;;;27.91;68.36;100654.95;1749555;81;21100;-69
2021/07/26 12:38:04;;;;;;;;;;;;;;;27.91;67.00;100653.62;1647603;86;20312;-65
2021/07/26 12:40:32;;;;;;;;;;;;;;;27.92;65.25;100655.28;1678830;85;20121;-67
2021/07/26 12:43:16;;;;;;;;;;;;;;;27.93;60.91;100638.20;1721535;81;20120;-68
2021/07/26 12:45:44;;;;;;;;;;;;;;;27.97;61.46;100636.83;1742087;81;20095;-69
2021/07/26 12:48:12;;;;;;;;;;;;;;;28.00;60.86;100635.92;1730985;82;21908;-68
2021/07/26 12:50:43;;;;;;;;;;;;;;;28.03;61.04;100634.72;1733465;81;20129;-67
2021/07/26 12:53:15;;;;;;;;;;;;;;;28.04;57.30;100629.69;1739551;82;20120;-69
2021/07/26 12:55:40;;;;;;;;;;;;;;;28.06;58.05;100631.67;1731025;82;20087;-66
2021/07/26 12:58:07;;;;;;;;;;;;;;;28.11;59.44;100625.26;1751705;80;20171;-69
2021/07/26 13:00:34;;;;;;;;;;;;;;;28.17;54.75;100617.32;1770189;80;21104;-69
2021/07/26 13:03:03;;;;;;;;;;;;;;;28.26;54.77;100618.59;1773845;80;20587;-68
2021/07/26 13:05:30;;;;;;;;;;;;;;;28.32;53.00;100614.66;1770218;80;20097;-68
2021/07/26 13:07:56;;;;;;;;;;;;;;;28.38;49.74;100614.43;1776497;80;20356;-68
2021/07/26 13:10:24;;;;;;;;;;;;;;;28.42;48.68;100608.48;1769178;80;20167;-66
2021/07/26 13:12:50;;;;;;;;;;;;;;;28.44;48.37;100611.80;1769178;80;21063;-68
2021/07/26 13:15:18;;;;;;;;;;;;;;;28.47;50.54;100598.03;1771268;80;20392;-68
2021/07/26 13:17:44;;;;;;;;;;;;;;;28.54;48.63;100600.28;1774157;80;20143;-69
2021/07/26 13:20:13;;;;;;;;;;;;;;;28.65;49.87;100596.80;1726008;82;20423;-68
2021/07/26 13:22:40;;;;;;;;;;;;;;;28.79;48.59;100602.63;1776267;80;20117;-68
2021/07/26 13:25:08;;;;;;;;;;;;;;;28.92;47.98;100600.08;1782136;80;21113;-68
2021/07/26 13:27:37;;;;;;;;;;;;;;;29.04;45.79;100593.70;1782730;80;20156;-69
2021/07/26 13:30:05;;;;;;;;;;;;;;;29.13;45.82;100603.28;1778205;80;20355;-71
2021/07/26 13:32:31;;;;;;;;;;;;;;;29.24;44.15;100604.59;1780720;80;20117;-70
2021/07/26 13:34:58;;;;;;;;;;;;;;;29.31;44.03;100608.98;1770077;80;20162;-67
2021/07/26 13:37:25;;;;;;;;;;;;;;;29.35;44.29;100602.22;1770810;80;21958;-70
2021/07/26 13:39:53;;;;;;;;;;;;;;;29.39;43.97;100601.31;1774988;80;20159;-70
2021/07/26 13:42:20;;;;;;;;;;;;;;;29.49;44.71;100601.84;1775080;80;20113;-68
2021/07/26 13:44:47;;;;;;;;;;;;;;;29.60;42.60;100597.77;1772206;80;20158;-69
2021/07/26 13:47:14;;;;;;;;;;;;;;;29.67;42.44;100595.96;1778230;80;20101;-68
2021/07/26 13:49:44;;;;;;;;;;;;;;;29.72;43.50;100599.72;1768196;80;20200;-71
2021/07/26 13:52:12;;;;;;;;;;;;;;;29.76;43.20;100597.47;1771780;80;20132;-69
2021/07/26 13:54:39;;;;;;;;;;;;;;;29.78;43.17;100602.96;1757142;81;20124;-70
2021/07/26 13:57:06;;;;;;;;;;;;;;;29.78;42.60;100597.59;1768344;80;20094;-68
2021/07/26 13:59:34;;;;;;;;;;;;;;;29.76;41.07;100600.98;1783908;80;20410;-66
2021/07/26 14:02:01;;;;;;;;;;;;;;;29.71;42.24;100596.72;1764951;80;21770;-68
2021/07/26 14:04:28;;;;;;;;;;;;;;;29.66;42.11;100593.79;1773148;80;20171;-72
2021/07/26 14:06:56;;;;;;;;;;;;;;;29.60;41.64;100590.55;1778410;80;20136;-65
2021/07/26 14:09:27;;;;;;;;;;;;;;;29.52;41.91;100598.77;1764564;80;20598;-70
2021/07/26 14:11:57;;;;;;;;;;;;;;;29.43;42.59;100596.74;1770924;80;20163;-65
2021/07/26 14:14:24;;;;;;;;;;;;;;;29.35;43.24;100600.05;1767319;80;22925;-65
2021/07/26 14:16:53;;;;;;;;;;;;;;;29.30;43.41;100595.77;1770393;80;20117;-65
2021/07/26 14:19:21;;;;;;;;;;;;;;;29.23;43.67;100594.88;1764370;80;20168;-64
2021/07/26 14:21:48;;;;;;;;;;;;;;;29.14;44.15;100596.90;1764147;80;20081;-66
2021/07/26 14:24:14;;;;;;;;;;;;;;;29.05;44.35;100597.53;1766788;80;20117;-65
